createdAt,value
2017-08-13T00:00:00.493Z,91.2
2017-08-13T00:01:00.497Z,91.68
2017-08-13T00:02:00.483Z,91.68
2017-08-13T00:03:00.474Z,91.49
2017-08-13T00:04:00.476Z,91.68
2017-08-13T00:05:00.467Z,91.59
2017-08-13T00:06:00.466Z,91.49
2017-08-13T00:07:00.468Z,91.3
2017-08-13T00:08:00.450Z,91.49
2017-08-13T00:09:00.441Z,91.49
2017-08-13T00:10:00.438Z,91.39
2017-08-13T00:11:00.434Z,91.39
2017-08-13T00:12:00.433Z,91.39
2017-08-13T00:13:00.422Z,90.82
2017-08-13T00:14:00.109Z,91.2
2017-08-13T00:15:00.410Z,91.02
2017-08-13T00:16:00.404Z,91.2
2017-08-13T00:17:00.398Z,91.11
2017-08-13T00:18:00.419Z,90.82
2017-08-13T00:19:00.396Z,90.63
2017-08-13T00:20:00.384Z,90.92
2017-08-13T00:21:00.389Z,90.58
2017-08-13T00:22:00.379Z,90.63
2017-08-13T00:23:00.364Z,90.48
2017-08-13T00:24:00.360Z,90.3
2017-08-13T00:25:00.355Z,89.91
2017-08-13T00:26:00.350Z,90.1
2017-08-13T00:27:00.344Z,90.87
2017-08-13T00:28:00.339Z,90.1
2017-08-13T00:29:00.333Z,89.91
2017-08-13T00:30:00.329Z,90.3
2017-08-13T00:31:00.323Z,90.2
2017-08-13T00:32:00.315Z,90.01
2017-08-13T00:33:00.308Z,90.2
2017-08-13T00:33:59.998Z,90.01
2017-08-13T00:35:00.299Z,89.91
2017-08-13T00:35:59.990Z,89.91
2017-08-13T00:37:00.288Z,90.1
2017-08-13T00:38:00.286Z,89.91
2017-08-13T00:39:00.303Z,89.91
2017-08-13T00:40:00.273Z,89.91
2017-08-13T00:41:00.271Z,90.3
2017-08-13T00:42:00.263Z,90.2
2017-08-13T00:43:00.255Z,90.3
2017-08-13T00:44:00.249Z,89.81
2017-08-13T00:45:00.246Z,90.2
2017-08-13T00:46:00.240Z,90.01
2017-08-13T00:47:00.233Z,90.1
2017-08-13T00:48:00.231Z,90.01
2017-08-13T00:49:00.226Z,90.01
2017-08-13T00:50:00.216Z,90.01
2017-08-13T00:51:00.214Z,90.2
2017-08-13T00:52:00.206Z,90.01
2017-08-13T00:52:59.896Z,90.2
2017-08-13T00:53:59.889Z,90.3
2017-08-13T00:55:00.192Z,90.39
2017-08-13T00:56:00.189Z,90.2
2017-08-13T00:57:00.177Z,90.2
2017-08-13T00:58:00.174Z,90.2
2017-08-13T00:59:00.170Z,90.2
2017-08-13T01:00:00.163Z,90.2
2017-08-13T01:01:00.160Z,90.39
2017-08-13T01:02:00.156Z,90.2
2017-08-13T01:03:00.144Z,90.3
2017-08-13T01:04:00.139Z,90.1
2017-08-13T01:05:00.133Z,89.87
2017-08-13T01:06:00.126Z,89.96
2017-08-13T01:07:00.125Z,90.2
2017-08-13T01:08:00.121Z,90.39
2017-08-13T01:09:00.112Z,90.53
2017-08-13T01:09:59.801Z,90.44
2017-08-13T01:11:00.100Z,90.39
2017-08-13T01:11:59.788Z,90.53
2017-08-13T01:12:59.786Z,90.63
2017-08-13T01:14:00.084Z,90.96
2017-08-13T01:15:00.079Z,90.58
2017-08-13T01:16:00.077Z,90.67
2017-08-13T01:17:00.069Z,91.02
2017-08-13T01:18:00.063Z,91.2
2017-08-13T01:19:00.060Z,91.02
2017-08-13T01:20:00.052Z,90.82
2017-08-13T01:21:00.069Z,91.02
2017-08-13T01:21:59.735Z,90.63
2017-08-13T01:23:00.036Z,90.92
2017-08-13T01:24:00.038Z,90.82
2017-08-13T01:25:00.025Z,90.87
2017-08-13T01:26:00.017Z,91.16
2017-08-13T01:27:00.012Z,91.16
2017-08-13T01:28:00.009Z,91.25
2017-08-13T01:29:00.005Z,90.82
2017-08-13T01:29:59.996Z,91.53
2017-08-13T01:30:59.993Z,91.44
2017-08-13T01:31:59.985Z,91.35
2017-08-13T01:32:59.978Z,91.53
2017-08-13T01:33:59.975Z,91.49
2017-08-13T01:34:59.666Z,91.44
2017-08-13T01:35:59.966Z,91.35
2017-08-13T01:36:59.960Z,91.63
2017-08-13T01:37:59.951Z,91.53
2017-08-13T01:38:59.945Z,91.25
2017-08-13T01:39:59.941Z,91.25
2017-08-13T01:40:59.938Z,91.35
2017-08-13T01:41:59.931Z,91.53
2017-08-13T01:42:59.925Z,91.53
2017-08-13T01:43:59.918Z,91.53
2017-08-13T01:44:59.911Z,91.63
2017-08-13T01:45:59.909Z,91.63
2017-08-13T01:46:59.904Z,91.44
2017-08-13T01:47:59.894Z,91.3
2017-08-13T01:48:59.891Z,91.44
2017-08-13T01:49:59.883Z,91.59
2017-08-13T01:50:59.880Z,91.39
2017-08-13T01:51:59.572Z,91.3
2017-08-13T01:52:59.866Z,91.02
2017-08-13T01:53:59.864Z,91.49
2017-08-13T01:54:59.857Z,91.68
2017-08-13T01:55:59.855Z,91.49
2017-08-13T01:56:59.844Z,91.39
2017-08-13T01:57:59.840Z,91.59
2017-08-13T01:58:59.835Z,91.78
2017-08-13T01:59:59.829Z,91.78
2017-08-13T02:00:59.826Z,91.59
2017-08-13T02:01:59.818Z,92.16
2017-08-13T02:02:59.812Z,92.25
2017-08-13T02:03:59.808Z,92.25
2017-08-13T02:04:59.799Z,92.16
2017-08-13T02:05:59.796Z,92.25
2017-08-13T02:06:59.789Z,92.35
2017-08-13T02:07:59.783Z,92.54
2017-08-13T02:08:59.780Z,92.35
2017-08-13T02:09:59.775Z,92.45
2017-08-13T02:10:59.766Z,92.25
2017-08-13T02:11:59.760Z,92.25
2017-08-13T02:12:59.755Z,92.25
2017-08-13T02:13:59.749Z,92.07
2017-08-13T02:14:59.745Z,92.35
2017-08-13T02:15:59.742Z,92.93
2017-08-13T02:16:59.741Z,92.83
2017-08-13T02:17:59.728Z,92.74
2017-08-13T02:18:59.721Z,92.83
2017-08-13T02:19:59.720Z,92.83
2017-08-13T02:20:59.713Z,92.83
2017-08-13T02:21:59.706Z,92.74
2017-08-13T02:22:59.702Z,92.83
2017-08-13T02:23:59.698Z,92.83
2017-08-13T02:24:59.688Z,92.83
2017-08-13T02:25:59.686Z,92.64
2017-08-13T02:26:59.681Z,92.83
2017-08-13T02:27:59.673Z,92.64
2017-08-13T02:28:59.666Z,92.74
2017-08-13T02:29:59.663Z,92.64
2017-08-13T02:30:59.657Z,92.45
2017-08-13T02:31:59.650Z,92.54
2017-08-13T02:32:59.645Z,92.74
2017-08-13T02:33:59.646Z,92.74
2017-08-13T02:34:59.634Z,92.74
2017-08-13T02:35:59.638Z,92.74
2017-08-13T02:36:59.626Z,93.6
2017-08-13T02:37:59.620Z,93.4
2017-08-13T02:38:59.615Z,93.45
2017-08-13T02:39:59.611Z,93.12
2017-08-13T02:40:59.615Z,92.97
2017-08-13T02:41:59.598Z,93.55
2017-08-13T02:42:59.593Z,93.36
2017-08-13T02:43:59.586Z,93.6
2017-08-13T02:44:59.579Z,93.31
2017-08-13T02:45:59.575Z,93.21
2017-08-13T02:46:59.569Z,93.4
2017-08-13T02:47:59.568Z,93.4
2017-08-13T02:48:59.559Z,93.4
2017-08-13T02:49:59.555Z,93.4
2017-08-13T02:50:59.547Z,93.31
2017-08-13T02:51:59.542Z,93.31
2017-08-13T02:52:59.228Z,93.4
2017-08-13T02:53:59.530Z,93.4
2017-08-13T02:54:59.523Z,93.31
2017-08-13T02:55:59.524Z,93.31
2017-08-13T02:56:59.207Z,93.88
2017-08-13T02:57:59.205Z,93.79
2017-08-13T02:58:59.501Z,92.93
2017-08-13T02:59:59.496Z,93.4
2017-08-13T03:00:59.491Z,93.6
2017-08-13T03:01:59.484Z,93.45
2017-08-13T03:02:59.477Z,93.88
2017-08-13T03:03:59.476Z,93.55
2017-08-13T03:04:59.468Z,93.5
2017-08-13T03:05:59.461Z,93.69
2017-08-13T03:06:59.457Z,94.07
2017-08-13T03:07:59.450Z,94.02
2017-08-13T03:08:59.445Z,93.5
2017-08-13T03:09:59.441Z,93.65
2017-08-13T03:10:59.431Z,93.88
2017-08-13T03:11:59.428Z,93.45
2017-08-13T03:12:59.422Z,93.5
2017-08-13T03:13:59.414Z,93.36
2017-08-13T03:14:59.411Z,93.98
2017-08-13T03:15:59.407Z,93.93
2017-08-13T03:16:59.401Z,93.93
2017-08-13T03:17:59.394Z,93.93
2017-08-13T03:18:59.390Z,93.93
2017-08-13T03:19:59.382Z,93.98
2017-08-13T03:20:59.378Z,93.84
2017-08-13T03:21:59.065Z,93.65
2017-08-13T03:22:59.363Z,93.6
2017-08-13T03:23:59.359Z,93.65
2017-08-13T03:24:59.355Z,93.74
2017-08-13T03:25:59.348Z,93.5
2017-08-13T03:26:59.341Z,93.79
2017-08-13T03:27:59.336Z,93.5
2017-08-13T03:28:59.331Z,93.74
2017-08-13T03:29:59.327Z,93.36
2017-08-13T03:30:59.324Z,93.74
2017-08-13T03:31:59.318Z,93.4
2017-08-13T03:32:59.310Z,93.79
2017-08-13T03:33:59.305Z,93.74
2017-08-13T03:34:59.295Z,93.79
2017-08-13T03:35:59.292Z,93.93
2017-08-13T03:36:59.285Z,93.93
2017-08-13T03:37:59.282Z,93.98
2017-08-13T03:38:59.289Z,94.31
2017-08-13T03:39:59.274Z,94.51
2017-08-13T03:40:59.265Z,94.17
2017-08-13T03:41:59.257Z,94.22
2017-08-13T03:42:59.251Z,94.46
2017-08-13T03:43:59.248Z,94.12
2017-08-13T03:44:59.241Z,94.26
2017-08-13T03:45:59.235Z,94.02
2017-08-13T03:46:59.230Z,94.17
2017-08-13T03:47:59.226Z,94.22
2017-08-13T03:48:59.218Z,93.79
2017-08-13T03:49:59.211Z,93.88
2017-08-13T03:50:59.208Z,94.07
2017-08-13T03:51:59.201Z,94.26
2017-08-13T03:52:59.198Z,94.07
2017-08-13T03:53:59.190Z,94.07
2017-08-13T03:54:59.188Z,94.07
2017-08-13T03:55:59.179Z,94.07
2017-08-13T03:56:59.172Z,94.07
2017-08-13T03:57:59.168Z,94.26
2017-08-13T03:58:59.166Z,94.07
2017-08-13T03:59:59.157Z,94.07
2017-08-13T04:00:59.150Z,94.07
2017-08-13T04:01:59.145Z,94.36
2017-08-13T04:02:59.142Z,94.07
2017-08-13T04:03:59.151Z,94.36
2017-08-13T04:04:59.129Z,94.07
2017-08-13T04:05:59.122Z,94.07
2017-08-13T04:06:59.118Z,94.07
2017-08-13T04:07:59.121Z,94.26
2017-08-13T04:08:59.108Z,94.26
2017-08-13T04:09:59.099Z,94.26
2017-08-13T04:10:59.093Z,94.07
2017-08-13T04:11:59.091Z,94.65
2017-08-13T04:12:59.082Z,94.07
2017-08-13T04:13:59.080Z,94.26
2017-08-13T04:14:58.766Z,94.07
2017-08-13T04:15:59.066Z,94.26
2017-08-13T04:16:59.059Z,94.26
2017-08-13T04:17:58.752Z,94.07
2017-08-13T04:18:59.049Z,94.17
2017-08-13T04:19:59.044Z,94.17
2017-08-13T04:20:59.040Z,94.07
2017-08-13T04:21:59.030Z,94.26
2017-08-13T04:22:59.029Z,94.17
2017-08-13T04:23:59.018Z,94.46
2017-08-13T04:24:59.015Z,94.26
2017-08-13T04:25:59.009Z,94.65
2017-08-13T04:26:59.006Z,94.79
2017-08-13T04:27:59.001Z,94.93
2017-08-13T04:28:58.992Z,94.65
2017-08-13T04:29:58.985Z,94.74
2017-08-13T04:30:58.985Z,94.36
2017-08-13T04:31:58.975Z,94.17
2017-08-13T04:32:58.971Z,94.36
2017-08-13T04:33:58.961Z,94.65
2017-08-13T04:34:58.959Z,94.84
2017-08-13T04:35:58.951Z,94.74
2017-08-13T04:36:58.949Z,94.65
2017-08-13T04:37:58.945Z,94.07
2017-08-13T04:38:58.938Z,94.65
2017-08-13T04:39:58.928Z,94.74
2017-08-13T04:40:58.924Z,94.46
2017-08-13T04:41:58.924Z,94.84
2017-08-13T04:42:58.935Z,94.65
2017-08-13T04:43:58.907Z,94.65
2017-08-13T04:44:58.900Z,94.46
2017-08-13T04:45:58.894Z,94.55
2017-08-13T04:46:58.891Z,94.26
2017-08-13T04:47:58.881Z,94.55
2017-08-13T04:48:58.877Z,94.65
2017-08-13T04:49:58.871Z,94.65
2017-08-13T04:50:58.868Z,94.46
2017-08-13T04:51:58.861Z,94.65
2017-08-13T04:52:58.854Z,94.26
2017-08-13T04:53:58.849Z,94.17
2017-08-13T04:54:58.844Z,94.74
2017-08-13T04:55:58.837Z,94.46
2017-08-13T04:56:58.836Z,94.74
2017-08-13T04:57:58.826Z,94.46
2017-08-13T04:58:58.824Z,94.84
2017-08-13T04:59:58.816Z,94.74
2017-08-13T05:00:58.814Z,94.65
2017-08-13T05:01:58.807Z,94.74
2017-08-13T05:02:58.798Z,94.84
2017-08-13T05:03:58.799Z,94.65
2017-08-13T05:04:58.791Z,94.55
2017-08-13T05:05:58.781Z,94.93
2017-08-13T05:06:58.777Z,94.46
2017-08-13T05:07:58.774Z,94.6
2017-08-13T05:08:58.769Z,94.89
2017-08-13T05:09:58.760Z,94.89
2017-08-13T05:10:58.753Z,94.79
2017-08-13T05:11:58.749Z,94.5
2017-08-13T05:12:58.746Z,94.17
2017-08-13T05:13:58.736Z,93.4
2017-08-13T05:14:58.738Z,93.5
2017-08-13T05:15:58.732Z,93.12
2017-08-13T05:16:58.414Z,92.83
2017-08-13T05:17:58.717Z,92.63
2017-08-13T05:18:58.711Z,92.92
2017-08-13T05:19:58.705Z,92.92
2017-08-13T05:20:58.700Z,92.59
2017-08-13T05:21:58.694Z,92.25
2017-08-13T05:22:58.385Z,92.88
2017-08-13T05:23:58.683Z,93.02
2017-08-13T05:24:58.696Z,92.59
2017-08-13T05:25:58.675Z,92.59
2017-08-13T05:26:58.671Z,92.88
2017-08-13T05:27:58.663Z,92.88
2017-08-13T05:28:58.657Z,92.88
2017-08-13T05:29:58.651Z,92.3
2017-08-13T05:30:58.649Z,92.11
2017-08-13T05:31:58.641Z,93.07
2017-08-13T05:32:58.632Z,92.88
2017-08-13T05:33:58.324Z,92.88
2017-08-13T05:34:58.624Z,92.78
2017-08-13T05:35:58.621Z,92.78
2017-08-13T05:36:58.612Z,92.88
2017-08-13T05:37:58.605Z,92.63
2017-08-13T05:38:58.602Z,92.54
2017-08-13T05:39:58.595Z,92.63
2017-08-13T05:40:58.590Z,92.73
2017-08-13T05:41:58.592Z,92.92
2017-08-13T05:42:58.586Z,92.35
2017-08-13T05:43:58.579Z,92.16
2017-08-13T05:44:58.567Z,92.44
2017-08-13T05:45:58.562Z,92.35
2017-08-13T05:46:58.558Z,92.35
2017-08-13T05:47:58.554Z,92.4
2017-08-13T05:48:58.547Z,92.68
2017-08-13T05:49:58.541Z,91.53
2017-08-13T05:50:58.540Z,91.25
2017-08-13T05:51:58.529Z,91.63
2017-08-13T05:52:58.525Z,91.44
2017-08-13T05:53:58.519Z,91.15
2017-08-13T05:54:58.212Z,91.15
2017-08-13T05:55:58.513Z,91.34
2017-08-13T05:56:58.505Z,91.39
2017-08-13T05:57:58.500Z,91
2017-08-13T05:58:58.499Z,90.91
2017-08-13T05:59:58.485Z,90.33
2017-08-13T06:00:58.487Z,90.72
2017-08-13T06:01:58.474Z,90.05
2017-08-13T06:02:58.471Z,90.43
2017-08-13T06:03:58.466Z,90.33
2017-08-13T06:04:58.456Z,89.71
2017-08-13T06:05:58.451Z,89.71
2017-08-13T06:06:58.446Z,89.51
2017-08-13T06:07:58.444Z,89.04
2017-08-13T06:08:58.435Z,88.94
2017-08-13T06:09:58.437Z,88.89
2017-08-13T06:10:58.429Z,89.18
2017-08-13T06:11:58.420Z,89.37
2017-08-13T06:12:58.416Z,88.98
2017-08-13T06:13:58.411Z,88.51
2017-08-13T06:14:58.424Z,88.7
2017-08-13T06:15:58.401Z,87.93
2017-08-13T06:16:58.395Z,87.59
2017-08-13T06:17:58.391Z,87.68
2017-08-13T06:18:58.382Z,88.07
2017-08-13T06:19:58.384Z,87.21
2017-08-13T06:20:58.374Z,87.4
2017-08-13T06:21:58.370Z,86.92
2017-08-13T06:22:58.362Z,87.11
2017-08-13T06:23:58.356Z,86.92
2017-08-13T06:24:58.355Z,87.15
2017-08-13T06:25:58.349Z,86.19
2017-08-13T06:26:58.344Z,87.05
2017-08-13T06:27:58.340Z,85.8
2017-08-13T06:28:58.333Z,84.06
2017-08-13T06:29:58.329Z,81.83
2017-08-13T06:30:58.325Z,79.5
2017-08-13T06:31:58.317Z,77.46
2017-08-13T06:32:58.315Z,74.93
2017-08-13T06:33:58.309Z,72.88
2017-08-13T06:34:58.305Z,70.98
2017-08-13T06:35:58.306Z,68.88
2017-08-13T06:36:58.299Z,66.6
2017-08-13T06:37:58.296Z,64.2
2017-08-13T06:38:58.310Z,62.43
2017-08-13T06:39:58.286Z,60.03
2017-08-13T06:40:58.284Z,58.61
2017-08-13T06:41:58.276Z,56.79
2017-08-13T06:42:58.277Z,55.07
2017-08-13T06:43:58.272Z,54.46
2017-08-13T06:44:58.277Z,55.41
2017-08-13T06:45:58.265Z,55.64
2017-08-13T06:46:58.265Z,56.68
2017-08-13T06:47:58.260Z,56.36
2017-08-13T06:48:58.260Z,55.78
2017-08-13T06:49:58.255Z,54.94
2017-08-13T06:50:58.252Z,54.06
2017-08-13T06:51:58.249Z,52.83
2017-08-13T06:52:58.246Z,51.4
2017-08-13T06:53:58.241Z,50.65
2017-08-13T06:54:57.935Z,50.46
2017-08-13T06:55:58.237Z,50.16
2017-08-13T06:56:57.926Z,49.75
2017-08-13T06:57:57.928Z,49.1
2017-08-13T06:58:58.225Z,48.15
2017-08-13T06:59:58.224Z,46.81
2017-08-13T07:00:58.224Z,46.64
2017-08-13T07:01:58.217Z,45.79
2017-08-13T07:02:58.221Z,45.25
2017-08-13T07:03:58.214Z,43.62
2017-08-13T07:04:58.211Z,42.28
2017-08-13T07:05:58.209Z,41.6
2017-08-13T07:06:57.908Z,41.11
2017-08-13T07:07:58.204Z,40.64
2017-08-13T07:08:58.198Z,40.06
2017-08-13T07:09:58.195Z,39.78
2017-08-13T07:10:58.194Z,38.24
2017-08-13T07:11:58.193Z,38.73
2017-08-13T07:12:58.189Z,38.32
2017-08-13T07:13:58.185Z,37.91
2017-08-13T07:14:58.185Z,38.67
2017-08-13T07:15:58.179Z,39.72
2017-08-13T07:16:58.183Z,39.62
2017-08-13T07:17:57.871Z,39.9
2017-08-13T07:18:58.176Z,40.29
2017-08-13T07:19:58.172Z,40.56
2017-08-13T07:20:58.166Z,40.95
2017-08-13T07:21:58.162Z,41.13
2017-08-13T07:22:58.166Z,41.05
2017-08-13T07:23:58.159Z,40.27
2017-08-13T07:24:58.158Z,40.75
2017-08-13T07:25:58.152Z,41.34
2017-08-13T07:26:58.152Z,40.37
2017-08-13T07:27:58.147Z,39.9
2017-08-13T07:28:58.145Z,40.09
2017-08-13T07:29:58.144Z,40.19
2017-08-13T07:30:58.140Z,39.69
2017-08-13T07:31:58.136Z,38.65
2017-08-13T07:32:58.132Z,38.77
2017-08-13T07:33:58.132Z,37.43
2017-08-13T07:34:58.126Z,37.79
2017-08-13T07:35:57.821Z,38.09
2017-08-13T07:36:58.121Z,37.89
2017-08-13T07:37:57.815Z,37.52
2017-08-13T07:38:58.117Z,38.3
2017-08-13T07:39:57.806Z,37.71
2017-08-13T07:40:58.110Z,37.6
2017-08-13T07:41:58.105Z,38.36
2017-08-13T07:42:58.104Z,38.26
2017-08-13T07:43:58.100Z,38.24
2017-08-13T07:44:58.100Z,38.73
2017-08-13T07:45:58.095Z,38.71
2017-08-13T07:46:58.090Z,38.7
2017-08-13T07:47:58.092Z,39.08
2017-08-13T07:48:58.085Z,38.87
2017-08-13T07:49:58.086Z,38.7
2017-08-13T07:50:58.081Z,38.42
2017-08-13T07:51:58.082Z,37.45
2017-08-13T07:52:58.074Z,37.56
2017-08-13T07:53:58.069Z,37.46
2017-08-13T07:54:58.066Z,36.9
2017-08-13T07:55:58.064Z,37.37
2017-08-13T07:56:58.060Z,38.05
2017-08-13T07:57:58.058Z,37.92
2017-08-13T07:58:58.056Z,37.45
2017-08-13T07:59:57.745Z,37.84
2017-08-13T08:00:58.049Z,37.54
2017-08-13T08:01:58.045Z,37.74
2017-08-13T08:02:58.042Z,38.4
2017-08-13T08:03:58.037Z,38.31
2017-08-13T08:04:58.034Z,37.74
2017-08-13T08:05:58.050Z,38.03
2017-08-13T08:06:58.026Z,37.74
2017-08-13T08:07:58.025Z,37.45
2017-08-13T08:08:58.021Z,37.37
2017-08-13T08:09:58.019Z,36.8
2017-08-13T08:10:58.010Z,36.72
2017-08-13T08:11:58.010Z,36.53
2017-08-13T08:12:58.009Z,37.58
2017-08-13T08:13:58.003Z,37.68
2017-08-13T08:14:57.996Z,38.05
2017-08-13T08:15:57.994Z,37.93
2017-08-13T08:16:57.998Z,37.93
2017-08-13T08:17:57.986Z,37.45
2017-08-13T08:18:57.986Z,37.18
2017-08-13T08:19:57.980Z,36.02
2017-08-13T08:20:57.978Z,34.99
2017-08-13T08:21:57.669Z,34.32
2017-08-13T08:22:57.968Z,34.24
2017-08-13T08:23:57.959Z,33.46
2017-08-13T08:24:57.961Z,33.38
2017-08-13T08:25:57.957Z,32.99
2017-08-13T08:26:57.954Z,32.23
2017-08-13T08:27:57.944Z,32.04
2017-08-13T08:28:57.943Z,31.75
2017-08-13T08:29:57.938Z,31.67
2017-08-13T08:30:57.938Z,31.56
2017-08-13T08:31:57.932Z,31.93
2017-08-13T08:32:57.929Z,33.17
2017-08-13T08:33:57.940Z,34.11
2017-08-13T08:34:57.921Z,34.76
2017-08-13T08:35:57.917Z,35.83
2017-08-13T08:36:57.911Z,36.69
2017-08-13T08:37:57.908Z,37.16
2017-08-13T08:38:57.910Z,37.24
2017-08-13T08:39:57.906Z,37.12
2017-08-13T08:40:57.900Z,37.68
2017-08-13T08:41:57.896Z,38.06
2017-08-13T08:42:57.889Z,39.01
2017-08-13T08:43:57.892Z,39.49
2017-08-13T08:44:57.886Z,39.47
2017-08-13T08:45:57.878Z,40.05
2017-08-13T08:46:57.872Z,40.64
2017-08-13T08:47:57.875Z,40.71
2017-08-13T08:48:57.866Z,41.3
2017-08-13T08:49:57.861Z,41.78
2017-08-13T08:50:57.856Z,41.49
2017-08-13T08:51:57.856Z,41.95
2017-08-13T08:52:57.854Z,42.72
2017-08-13T08:53:57.844Z,43.29
2017-08-13T08:54:57.841Z,43.38
2017-08-13T08:55:57.841Z,43.68
2017-08-13T08:56:57.834Z,43.48
2017-08-13T08:57:57.831Z,44.16
2017-08-13T08:58:57.827Z,43.87
2017-08-13T08:59:57.823Z,44.06
2017-08-13T09:00:57.819Z,44.16
2017-08-13T09:01:57.816Z,44.53
2017-08-13T09:02:57.812Z,44.54
2017-08-13T09:03:57.807Z,44.43
2017-08-13T09:04:57.806Z,44.91
2017-08-13T09:05:57.799Z,45.4
2017-08-13T09:06:57.797Z,45.57
2017-08-13T09:07:57.801Z,45.86
2017-08-13T09:08:57.790Z,46.92
2017-08-13T09:09:57.781Z,47.6
2017-08-13T09:10:57.478Z,47
2017-08-13T09:11:57.774Z,47.58
2017-08-13T09:12:57.773Z,47.38
2017-08-13T09:13:57.461Z,46.97
2017-08-13T09:14:57.762Z,47.45
2017-08-13T09:15:57.759Z,47.74
2017-08-13T09:16:57.758Z,47.24
2017-08-13T09:17:57.748Z,47.43
2017-08-13T09:18:57.748Z,47.43
2017-08-13T09:19:57.439Z,47.53
2017-08-13T09:20:57.737Z,47.24
2017-08-13T09:21:57.734Z,47.63
2017-08-13T09:22:57.734Z,48.11
2017-08-13T09:23:57.731Z,48.59
2017-08-13T09:24:57.724Z,48.37
2017-08-13T09:25:57.717Z,48.76
2017-08-13T09:26:57.735Z,49.15
2017-08-13T09:27:57.709Z,48.59
2017-08-13T09:28:57.705Z,48.37
2017-08-13T09:29:57.700Z,48.57
2017-08-13T09:30:57.392Z,49.15
2017-08-13T09:31:57.697Z,49.92
2017-08-13T09:32:57.688Z,50.11
2017-08-13T09:33:57.684Z,49.92
2017-08-13T09:34:57.374Z,50.01
2017-08-13T09:35:57.675Z,50.11
2017-08-13T09:36:57.675Z,50.01
2017-08-13T09:37:57.666Z,49.92
2017-08-13T09:38:57.663Z,50.79
2017-08-13T09:39:57.656Z,50.79
2017-08-13T09:40:57.659Z,50.79
2017-08-13T09:41:57.344Z,50.98
2017-08-13T09:42:57.643Z,50.86
2017-08-13T09:43:57.640Z,50.98
2017-08-13T09:44:57.635Z,50.69
2017-08-13T09:45:57.639Z,50.98
2017-08-13T09:46:57.632Z,51.15
2017-08-13T09:47:57.320Z,51.82
2017-08-13T09:48:57.617Z,51.44
2017-08-13T09:49:57.615Z,51.82
2017-08-13T09:50:57.607Z,51.63
2017-08-13T09:51:57.604Z,51.63
2017-08-13T09:52:57.601Z,50.76
2017-08-13T09:53:57.595Z,50.86
2017-08-13T09:54:57.594Z,50.96
2017-08-13T09:55:57.590Z,50.76
2017-08-13T09:56:57.583Z,51.44
2017-08-13T09:57:57.583Z,51.53
2017-08-13T09:58:57.573Z,52.11
2017-08-13T09:59:57.265Z,51.82
2017-08-13T10:00:57.568Z,52.11
2017-08-13T10:01:57.560Z,51.15
2017-08-13T10:02:57.557Z,51.53
2017-08-13T10:03:57.556Z,52.28
2017-08-13T10:04:57.549Z,53.44
2017-08-13T10:05:57.546Z,53.83
2017-08-13T10:06:57.541Z,53.8
2017-08-13T10:07:57.539Z,53.83
2017-08-13T10:08:57.535Z,53.92
2017-08-13T10:09:57.529Z,53.63
2017-08-13T10:10:57.523Z,54.5
2017-08-13T10:11:57.519Z,54.4
2017-08-13T10:12:57.516Z,53.95
2017-08-13T10:13:57.514Z,54.14
2017-08-13T10:14:57.507Z,53.75
2017-08-13T10:15:57.502Z,53.92
2017-08-13T10:16:57.499Z,53.53
2017-08-13T10:17:57.491Z,53.63
2017-08-13T10:18:57.575Z,53.63
2017-08-13T10:19:57.488Z,53.92
2017-08-13T10:20:57.485Z,53.92
2017-08-13T10:21:57.475Z,53.95
2017-08-13T10:22:57.474Z,53.73
2017-08-13T10:23:57.470Z,54.53
2017-08-13T10:24:57.464Z,54.53
2017-08-13T10:25:57.462Z,55.2
2017-08-13T10:26:57.456Z,55.1
2017-08-13T10:27:57.449Z,54.91
2017-08-13T10:28:57.139Z,54.82
2017-08-13T10:29:57.442Z,54.62
2017-08-13T10:30:57.493Z,54.53
2017-08-13T10:31:57.132Z,54.24
2017-08-13T10:32:57.429Z,54.62
2017-08-13T10:33:57.424Z,54.82
2017-08-13T10:34:57.418Z,55.01
2017-08-13T10:35:57.412Z,55.2
2017-08-13T10:36:57.412Z,55.01
2017-08-13T10:37:57.407Z,55.2
2017-08-13T10:38:57.403Z,54.53
2017-08-13T10:39:57.400Z,54.33
2017-08-13T10:40:57.403Z,54.14
2017-08-13T10:41:57.389Z,54.14
2017-08-13T10:42:57.386Z,54.05
2017-08-13T10:43:57.389Z,54.53
2017-08-13T10:44:57.378Z,54.05
2017-08-13T10:45:57.067Z,53.66
2017-08-13T10:46:57.368Z,53.17
2017-08-13T10:47:57.362Z,53.17
2017-08-13T10:48:57.357Z,53.66
2017-08-13T10:49:57.355Z,53.75
2017-08-13T10:50:57.347Z,53.75
2017-08-13T10:51:57.346Z,53.66
2017-08-13T10:52:57.343Z,54.43
2017-08-13T10:53:57.337Z,53.75
2017-08-13T10:54:57.332Z,53.95
2017-08-13T10:55:57.329Z,54.05
2017-08-13T10:56:57.324Z,53.08
2017-08-13T10:57:57.322Z,53.85
2017-08-13T10:58:57.314Z,54.82
2017-08-13T10:59:57.311Z,54.82
2017-08-13T11:00:57.306Z,55.18
2017-08-13T11:01:57.303Z,55.56
2017-08-13T11:02:57.298Z,55.18
2017-08-13T11:03:57.291Z,54.91
2017-08-13T11:04:56.983Z,54.72
2017-08-13T11:05:57.283Z,55.1
2017-08-13T11:06:57.289Z,55.3
2017-08-13T11:07:57.275Z,55.1
2017-08-13T11:08:57.273Z,55.1
2017-08-13T11:09:57.268Z,54.91
2017-08-13T11:10:57.262Z,54.62
2017-08-13T11:11:57.262Z,54.33
2017-08-13T11:12:57.251Z,54.33
2017-08-13T11:13:57.246Z,54.43
2017-08-13T11:14:57.244Z,53.75
2017-08-13T11:15:57.239Z,53.66
2017-08-13T11:16:57.237Z,53.95
2017-08-13T11:17:56.942Z,53.85
2017-08-13T11:18:57.227Z,53.83
2017-08-13T11:19:56.922Z,53.92
2017-08-13T11:20:57.219Z,53.63
2017-08-13T11:21:57.222Z,53.05
2017-08-13T11:22:57.210Z,53.83
2017-08-13T11:23:57.204Z,54.5
2017-08-13T11:24:57.202Z,54.6
2017-08-13T11:25:57.198Z,54.6
2017-08-13T11:26:57.191Z,54.69
2017-08-13T11:27:57.191Z,54.21
2017-08-13T11:28:57.183Z,54.21
2017-08-13T11:29:56.875Z,53.66
2017-08-13T11:30:57.177Z,54.05
2017-08-13T11:31:57.170Z,53.08
2017-08-13T11:32:57.168Z,52.69
2017-08-13T11:33:57.161Z,52.31
2017-08-13T11:34:57.159Z,52.11
2017-08-13T11:35:57.151Z,52.21
2017-08-13T11:36:57.145Z,52.4
2017-08-13T11:37:57.151Z,52.4
2017-08-13T11:38:57.139Z,52.98
2017-08-13T11:39:57.133Z,52.79
2017-08-13T11:40:57.129Z,52.95
2017-08-13T11:41:57.152Z,53.15
2017-08-13T11:42:57.125Z,53.25
2017-08-13T11:43:57.117Z,53.25
2017-08-13T11:44:57.112Z,53.75
2017-08-13T11:45:57.113Z,53.47
2017-08-13T11:46:57.108Z,52.79
2017-08-13T11:47:57.104Z,51.73
2017-08-13T11:48:57.098Z,51.82
2017-08-13T11:49:57.097Z,51.82
2017-08-13T11:50:57.087Z,51.15
2017-08-13T11:51:57.087Z,51.05
2017-08-13T11:52:57.082Z,51.25
2017-08-13T11:53:57.078Z,50.76
2017-08-13T11:54:57.070Z,51.34
2017-08-13T11:55:57.065Z,51.73
2017-08-13T11:56:57.063Z,51.53
2017-08-13T11:57:56.752Z,51.15
2017-08-13T11:58:57.054Z,50.86
2017-08-13T11:59:57.050Z,50.86
2017-08-13T12:00:57.045Z,51.25
2017-08-13T12:01:57.043Z,51.15
2017-08-13T12:02:57.039Z,50.96
2017-08-13T12:03:57.033Z,51.15
2017-08-13T12:04:57.029Z,50.86
2017-08-13T12:05:57.022Z,50.28
2017-08-13T12:06:57.021Z,50.86
2017-08-13T12:07:57.014Z,50.76
2017-08-13T12:08:57.012Z,51.05
2017-08-13T12:09:57.006Z,50.98
2017-08-13T12:10:57.006Z,50.98
2017-08-13T12:11:57.001Z,51.46
2017-08-13T12:12:56.998Z,51.85
2017-08-13T12:13:56.990Z,51.56
2017-08-13T12:14:56.984Z,51.85
2017-08-13T12:15:56.674Z,51.75
2017-08-13T12:16:56.975Z,51.75
2017-08-13T12:17:56.971Z,51.46
2017-08-13T12:18:56.965Z,51.85
2017-08-13T12:19:56.963Z,51.65
2017-08-13T12:20:56.653Z,51.53
2017-08-13T12:21:56.958Z,52.23
2017-08-13T12:22:56.949Z,51.85
2017-08-13T12:23:56.949Z,51.85
2017-08-13T12:24:56.940Z,52.33
2017-08-13T12:25:56.937Z,51.46
2017-08-13T12:26:56.934Z,51.27
2017-08-13T12:27:56.932Z,50.89
2017-08-13T12:28:56.927Z,50.79
2017-08-13T12:29:56.923Z,50.69
2017-08-13T12:30:56.914Z,50.79
2017-08-13T12:31:56.908Z,50.4
2017-08-13T12:32:56.905Z,50.31
2017-08-13T12:33:56.901Z,50.01
2017-08-13T12:34:56.897Z,50.21
2017-08-13T12:35:56.894Z,50.79
2017-08-13T12:36:56.890Z,50.79
2017-08-13T12:37:56.888Z,50.4
2017-08-13T12:38:56.881Z,49.53
2017-08-13T12:39:56.883Z,50.31
2017-08-13T12:40:56.873Z,49.82
2017-08-13T12:41:56.867Z,50.01
2017-08-13T12:42:56.863Z,50.79
2017-08-13T12:43:56.859Z,50.33
2017-08-13T12:44:56.853Z,50.43
2017-08-13T12:45:56.850Z,50.79
2017-08-13T12:46:56.847Z,50.31
2017-08-13T12:47:56.840Z,50.4
2017-08-13T12:48:56.842Z,50.89
2017-08-13T12:49:56.839Z,50.89
2017-08-13T12:50:56.522Z,51.37
2017-08-13T12:51:56.825Z,50.81
2017-08-13T12:52:56.516Z,51.07
2017-08-13T12:53:56.509Z,51.49
2017-08-13T12:54:56.810Z,51.95